createdAt,value
2017-09-13T00:01:59.120Z,8.20
2017-09-13T00:04:26.832Z,8.20
2017-09-13T00:06:55.901Z,8.20
2017-09-13T00:09:23.480Z,8.20
2017-09-13T00:11:51.462Z,8.30
2017-09-13T00:14:19.020Z,8.40
2017-09-13T00:16:46.581Z,8.40
2017-09-13T00:19:14.164Z,8.40
2017-09-13T00:21:43.415Z,8.40
2017-09-13T00:24:11.400Z,8.40
2017-09-13T00:26:38.960Z,8.40
2017-09-13T00:29:08.028Z,8.50
2017-09-13T00:31:35.628Z,8.50
2017-09-13T00:34:03.197Z,8.50
2017-09-13T00:36:31.547Z,8.60
2017-09-13T00:38:59.112Z,8.60
2017-09-13T00:41:26.700Z,8.70
2017-09-13T00:43:55.069Z,9.00
2017-09-13T00:46:22.636Z,9.00
2017-09-13T00:48:50.984Z,9.20
2017-09-13T00:51:18.544Z,9.20
2017-09-13T00:53:46.428Z,9.30
2017-09-13T00:56:14.008Z,9.40
2017-09-13T00:58:43.252Z,9.40
2017-09-13T01:01:10.889Z,9.40
2017-09-13T01:03:38.444Z,9.50
2017-09-13T01:06:06.789Z,9.60
2017-09-13T01:08:34.456Z,9.60
2017-09-13T01:11:02.045Z,9.70
2017-09-13T01:13:29.772Z,9.70
2017-09-13T01:15:57.644Z,9.80
2017-09-13T01:18:25.217Z,9.80
2017-09-13T01:20:53.444Z,9.70
2017-09-13T01:23:22.853Z,9.70
2017-09-13T01:25:50.413Z,9.70
2017-09-13T01:28:18.008Z,9.60
2017-09-13T01:30:46.011Z,9.60
2017-09-13T01:33:13.575Z,9.60
2017-09-13T01:35:41.199Z,9.70
2017-09-13T01:38:08.772Z,9.80
2017-09-13T01:40:37.136Z,9.80
2017-09-13T01:43:04.698Z,9.80
2017-09-13T01:45:32.281Z,9.80
2017-09-13T01:48:00.620Z,9.80
2017-09-13T01:50:28.204Z,9.80
2017-09-13T01:52:56.092Z,9.90
2017-09-13T01:55:24.466Z,9.90
2017-09-13T01:57:52.792Z,9.90
2017-09-13T02:00:20.356Z,9.90
2017-09-13T02:02:48.356Z,9.90
2017-09-13T02:05:16.088Z,9.90
2017-09-13T02:07:44.711Z,9.90
2017-09-13T02:10:12.322Z,9.80
2017-09-13T02:12:39.927Z,9.80
2017-09-13T02:15:07.692Z,9.80
2017-09-13T02:17:35.355Z,9.70
2017-09-13T02:20:02.925Z,9.70
2017-09-13T02:22:31.276Z,9.70
2017-09-13T02:24:58.836Z,9.70
2017-09-13T02:27:26.808Z,9.80
2017-09-13T02:29:54.389Z,9.90
2017-09-13T02:32:21.948Z,10.00
2017-09-13T02:34:49.541Z,10.20
2017-09-13T02:37:17.172Z,10.20
2017-09-13T02:39:45.792Z,10.30
2017-09-13T02:42:13.360Z,10.30
2017-09-13T02:44:40.953Z,10.30
2017-09-13T02:47:08.516Z,10.40
2017-09-13T02:49:36.113Z,10.40
2017-09-13T02:52:04.450Z,10.30
2017-09-13T02:54:32.016Z,10.30
2017-09-13T02:56:59.701Z,10.30
2017-09-13T02:59:27.269Z,10.20
2017-09-13T03:01:55.033Z,10.20
2017-09-13T03:04:22.689Z,10.10
2017-09-13T03:06:50.251Z,10.10
2017-09-13T03:09:17.917Z,10.10
2017-09-13T03:11:46.673Z,10.10
2017-09-13T03:14:14.259Z,10.00
2017-09-13T03:16:41.849Z,10.00
2017-09-13T03:19:10.177Z,10.00
2017-09-13T03:21:38.168Z,10.00
2017-09-13T03:24:05.841Z,10.00
2017-09-13T03:26:33.496Z,10.00
2017-09-13T03:29:01.083Z,9.90
2017-09-13T03:31:29.418Z,9.80
2017-09-13T03:33:57.005Z,9.80
2017-09-13T03:36:24.568Z,9.80
2017-09-13T03:38:53.039Z,9.80
2017-09-13T03:41:20.597Z,9.80
2017-09-13T03:43:48.488Z,9.80
2017-09-13T03:46:16.947Z,10.00
2017-09-13T03:48:46.660Z,10.00
2017-09-13T03:51:14.224Z,10.00
2017-09-13T03:53:41.882Z,10.10
2017-09-13T03:56:09.453Z,10.20
2017-09-13T03:58:37.043Z,10.20
2017-09-13T04:01:04.608Z,10.20
2017-09-13T04:03:32.172Z,10.20
2017-09-13T04:05:59.784Z,10.20
2017-09-13T04:08:27.752Z,10.20
2017-09-13T04:10:55.420Z,10.10
2017-09-13T04:13:22.991Z,10.10
2017-09-13T04:15:51.348Z,10.20
2017-09-13T04:18:18.907Z,10.20
2017-09-13T04:20:46.488Z,10.30
2017-09-13T04:23:14.049Z,10.40
2017-09-13T04:25:41.634Z,10.50
2017-09-13T04:28:09.203Z,10.50
2017-09-13T04:30:36.789Z,10.60
2017-09-13T04:33:04.348Z,10.60
2017-09-13T04:35:31.935Z,10.70
2017-09-13T04:37:59.496Z,10.80
2017-09-13T04:40:27.163Z,10.80
2017-09-13T04:42:54.723Z,10.90
2017-09-13T04:45:22.701Z,10.90
2017-09-13T04:47:50.360Z,11.00
2017-09-13T04:50:17.919Z,11.10
2017-09-13T04:52:46.436Z,11.10
2017-09-13T04:55:14.008Z,11.10
2017-09-13T04:57:41.592Z,11.10
2017-09-13T05:00:09.185Z,11.10
2017-09-13T05:02:37.160Z,11.10
2017-09-13T05:05:04.824Z,11.10
2017-09-13T05:07:32.392Z,11.00
2017-09-13T05:10:00.748Z,10.90
2017-09-13T05:12:28.528Z,10.90
2017-09-13T05:14:56.184Z,11.00
2017-09-13T05:17:24.584Z,11.00
2017-09-13T05:19:52.936Z,10.90
2017-09-13T05:22:20.608Z,10.90
2017-09-13T05:24:48.196Z,10.90
2017-09-13T05:27:16.553Z,10.90
2017-09-13T05:29:45.941Z,10.80
2017-09-13T05:32:13.512Z,10.80
2017-09-13T05:34:41.083Z,10.80
2017-09-13T05:37:09.439Z,10.70
2017-09-13T05:39:38.309Z,10.60
2017-09-13T05:42:05.885Z,10.70
2017-09-13T05:44:33.488Z,10.70
2017-09-13T05:47:01.819Z,10.70
2017-09-13T05:49:29.384Z,10.70
2017-09-13T05:51:56.972Z,10.60
2017-09-13T05:54:24.928Z,10.60
2017-09-13T05:56:52.510Z,10.50
2017-09-13T05:59:20.837Z,10.50
2017-09-13T06:01:48.732Z,10.50
2017-09-13T06:04:16.400Z,10.50
2017-09-13T06:06:45.174Z,10.40
2017-09-13T06:09:12.852Z,10.50
2017-09-13T06:11:41.181Z,10.40
2017-09-13T06:14:08.892Z,10.40
2017-09-13T06:16:36.455Z,10.40
2017-09-13T06:19:04.024Z,10.50
2017-09-13T06:21:31.610Z,10.50
2017-09-13T06:23:59.936Z,10.50
2017-09-13T06:26:27.624Z,10.50
2017-09-13T06:28:55.192Z,10.50
2017-09-13T06:31:23.529Z,10.50
2017-09-13T06:33:51.120Z,10.50
2017-09-13T06:36:18.684Z,10.50
2017-09-13T06:38:47.168Z,10.50
2017-09-13T06:41:14.750Z,10.50
2017-09-13T06:43:44.969Z,10.50
2017-09-13T06:46:13.304Z,10.60
2017-09-13T06:48:40.888Z,10.50
2017-09-13T06:51:08.453Z,10.60
2017-09-13T06:53:36.040Z,10.60
2017-09-13T06:56:03.613Z,10.60
2017-09-13T06:58:31.432Z,10.60
2017-09-13T07:00:58.995Z,10.50
2017-09-13T07:03:26.564Z,10.60
2017-09-13T07:05:55.047Z,10.60
2017-09-13T07:08:23.420Z,10.60
2017-09-13T07:10:51.004Z,10.60
2017-09-13T07:13:19.381Z,10.60
2017-09-13T07:15:47.720Z,10.70
2017-09-13T07:18:15.280Z,10.60
2017-09-13T07:20:43.872Z,10.70
2017-09-13T07:23:11.517Z,10.70
2017-09-13T07:25:39.128Z,10.70
2017-09-13T07:28:07.456Z,10.70
2017-09-13T07:30:35.020Z,10.70
2017-09-13T07:33:02.605Z,10.70
2017-09-13T07:35:30.169Z,10.70
2017-09-13T07:37:57.769Z,10.70
2017-09-13T07:40:25.341Z,10.80
2017-09-13T07:42:52.932Z,10.70
2017-09-13T07:45:20.504Z,10.80
2017-09-13T07:47:48.096Z,10.80
2017-09-13T07:50:16.424Z,10.80
2017-09-13T07:52:45.632Z,10.90
2017-09-13T07:55:13.196Z,10.80
2017-09-13T07:57:40.784Z,10.90
2017-09-13T08:00:09.112Z,10.90
2017-09-13T08:02:36.705Z,10.90
2017-09-13T08:05:04.277Z,11.00
2017-09-13T08:07:32.644Z,11.10
2017-09-13T08:10:00.211Z,11.10
2017-09-13T08:12:27.864Z,11.20
2017-09-13T08:14:55.486Z,11.20
2017-09-13T08:17:23.056Z,11.30
2017-09-13T08:19:50.765Z,11.40
2017-09-13T08:22:19.096Z,11.50
2017-09-13T08:24:46.656Z,11.50
2017-09-13T08:27:14.240Z,11.60
2017-09-13T08:29:41.844Z,11.60
2017-09-13T08:32:10.191Z,11.70
2017-09-13T08:34:38.525Z,11.80
2017-09-13T08:37:06.231Z,11.80
2017-09-13T08:39:33.792Z,11.80
2017-09-13T08:42:01.352Z,11.90
2017-09-13T08:44:28.980Z,12.00
2017-09-13T08:46:56.546Z,12.10
2017-09-13T08:49:24.137Z,12.10
2017-09-13T08:51:51.728Z,12.20
2017-09-13T08:54:20.092Z,12.20
2017-09-13T08:56:48.420Z,12.20
2017-09-13T08:59:15.985Z,12.20
2017-09-13T09:01:44.701Z,12.20
2017-09-13T09:04:12.661Z,12.20
2017-09-13T09:06:40.580Z,12.40
2017-09-13T09:09:08.148Z,12.40
2017-09-13T09:11:35.731Z,12.50
2017-09-13T09:14:03.528Z,12.80
2017-09-13T09:16:31.097Z,13.70
2017-09-13T09:18:58.932Z,13.90
2017-09-13T09:21:27.284Z,13.80
2017-09-13T09:23:54.857Z,13.70
2017-09-13T09:26:22.664Z,13.50
2017-09-13T09:28:50.232Z,13.40
2017-09-13T09:31:17.800Z,13.60
2017-09-13T09:33:45.808Z,13.60
2017-09-13T09:36:13.376Z,13.50
2017-09-13T09:38:41.040Z,13.40
2017-09-13T09:41:08.648Z,13.40
2017-09-13T09:43:36.215Z,13.20
2017-09-13T09:46:04.575Z,12.90
2017-09-13T09:48:32.955Z,12.70
2017-09-13T09:51:00.542Z,12.70
2017-09-13T09:53:28.877Z,12.40
2017-09-13T09:55:56.488Z,12.40
2017-09-13T09:58:24.124Z,12.30
2017-09-13T10:00:52.097Z,12.30
2017-09-13T10:03:19.757Z,12.20
2017-09-13T10:05:48.098Z,12.20
2017-09-13T10:08:15.684Z,12.20
2017-09-13T10:10:43.990Z,12.30
2017-09-13T10:13:12.452Z,12.40
2017-09-13T10:15:40.020Z,12.40
2017-09-13T10:18:07.600Z,12.50
2017-09-13T10:20:35.977Z,12.40
2017-09-13T10:23:04.341Z,12.40
2017-09-13T10:25:31.916Z,12.40
2017-09-13T10:28:00.381Z,12.40
2017-09-13T10:30:29.060Z,12.40
2017-09-13T10:32:58.129Z,12.30
2017-09-13T10:35:25.697Z,12.30
2017-09-13T10:37:53.289Z,12.30
2017-09-13T10:40:21.652Z,12.40
2017-09-13T10:42:49.225Z,12.40
2017-09-13T10:45:16.880Z,12.60
2017-09-13T10:47:45.785Z,12.70
2017-09-13T10:50:14.455Z,12.70
2017-09-13T10:52:43.704Z,12.70
2017-09-13T10:55:11.321Z,12.70
2017-09-13T10:57:38.913Z,12.80
2017-09-13T11:00:07.345Z,15.00
2017-09-13T11:02:34.908Z,15.00
2017-09-13T11:05:02.585Z,16.30
2017-09-13T11:07:30.176Z,17.00
2017-09-13T11:09:58.503Z,19.60
2017-09-13T11:12:26.104Z,19.50
2017-09-13T11:14:54.439Z,18.80
2017-09-13T11:17:22.037Z,18.80
2017-09-13T11:19:50.401Z,18.30
2017-09-13T11:22:17.972Z,18.30
2017-09-13T11:24:45.771Z,19.00
2017-09-13T11:27:13.344Z,20.30
2017-09-13T11:29:41.056Z,19.40
2017-09-13T11:32:08.725Z,17.90
2017-09-13T11:34:36.389Z,17.10
2017-09-13T11:37:03.980Z,16.90
2017-09-13T11:39:31.605Z,16.80
2017-09-13T11:41:59.576Z,16.70
2017-09-13T11:44:27.909Z,16.50
2017-09-13T11:46:55.485Z,16.40
2017-09-13T11:49:23.076Z,16.50
2017-09-13T11:51:57.632Z,16.50
2017-09-13T11:54:25.196Z,17.00
2017-09-13T11:56:52.820Z,17.30
2017-09-13T11:59:20.413Z,18.50
2017-09-13T12:01:48.329Z,18.90
2017-09-13T12:04:15.964Z,18.20
2017-09-13T12:06:44.701Z,17.50
2017-09-13T12:09:12.360Z,17.50
2017-09-13T12:11:39.950Z,17.40
2017-09-13T12:14:08.428Z,17.50
2017-09-13T12:16:36.797Z,17.50
2017-09-13T12:19:05.124Z,17.30
2017-09-13T12:21:32.710Z,17.30
2017-09-13T12:24:00.285Z,17.20
2017-09-13T12:26:27.876Z,17.20
2017-09-13T12:28:55.450Z,17.20
2017-09-13T12:31:23.171Z,17.00
2017-09-13T12:33:50.735Z,16.80
2017-09-13T12:36:18.397Z,16.70
2017-09-13T12:38:46.051Z,16.60
2017-09-13T12:41:13.674Z,16.60
2017-09-13T12:43:41.280Z,16.90
2017-09-13T12:46:08.864Z,17.20
2017-09-13T12:48:37.420Z,17.20
2017-09-13T12:51:06.490Z,17.20
2017-09-13T12:53:34.056Z,17.20
2017-09-13T12:56:01.648Z,17.30
2017-09-13T12:58:29.983Z,17.20
2017-09-13T13:00:57.583Z,17.20
2017-09-13T13:03:25.154Z,17.00
2017-09-13T13:05:53.509Z,16.30
2017-09-13T13:08:21.071Z,16.20
2017-09-13T13:10:48.744Z,15.80
2017-09-13T13:13:16.304Z,15.40
2017-09-13T13:15:45.572Z,14.50
2017-09-13T13:18:13.160Z,14.50
2017-09-13T13:20:40.851Z,14.30
2017-09-13T13:23:09.180Z,14.20
2017-09-13T13:25:36.754Z,14.20
2017-09-13T13:28:04.548Z,16.00
2017-09-13T13:30:32.889Z,18.80
2017-09-13T13:33:00.481Z,18.80
2017-09-13T13:35:28.078Z,20.10
2017-09-13T13:37:55.781Z,21.30
2017-09-13T13:40:23.345Z,21.80
2017-09-13T13:42:51.021Z,21.90
2017-09-13T13:45:18.689Z,22.20
2017-09-13T13:47:46.265Z,22.40
2017-09-13T13:50:15.029Z,22.30
2017-09-13T13:52:44.758Z,22.00
2017-09-13T13:55:13.089Z,22.10
2017-09-13T13:57:40.697Z,22.10
2017-09-13T14:00:09.033Z,22.40
2017-09-13T14:02:36.638Z,22.40
2017-09-13T14:05:05.018Z,22.00
2017-09-13T14:07:33.357Z,22.20
2017-09-13T14:10:01.054Z,22.20
2017-09-13T14:12:29.388Z,23.00
2017-09-13T14:14:56.954Z,23.00
2017-09-13T14:17:24.657Z,22.90
2017-09-13T14:19:52.993Z,22.40
2017-09-13T14:22:20.903Z,22.30
2017-09-13T14:24:48.473Z,22.20
2017-09-13T14:27:16.849Z,21.30
2017-09-13T14:29:45.838Z,21.30
2017-09-13T14:32:14.177Z,21.40
2017-09-13T14:34:41.917Z,21.40
2017-09-13T14:37:09.485Z,21.20
2017-09-13T14:39:37.053Z,21.50
2017-09-13T14:42:04.652Z,21.50
2017-09-13T14:44:32.313Z,21.30
2017-09-13T14:46:59.881Z,21.00
2017-09-13T14:49:27.450Z,20.20
2017-09-13T14:51:56.102Z,19.40
2017-09-13T14:54:23.801Z,19.40
2017-09-13T14:56:52.507Z,18.60
2017-09-13T14:59:20.132Z,18.50
2017-09-13T15:01:47.737Z,18.30
2017-09-13T15:04:15.314Z,18.40
2017-09-13T15:06:42.940Z,19.60
2017-09-13T15:09:11.306Z,20.50
2017-09-13T15:11:38.876Z,20.40
2017-09-13T15:14:07.234Z,20.50
2017-09-13T15:16:35.628Z,20.30
2017-09-13T15:19:04.145Z,20.10
2017-09-13T15:21:31.704Z,20.10
2017-09-13T15:23:59.284Z,19.70
2017-09-13T15:26:26.877Z,19.00
2017-09-13T15:28:54.449Z,19.00
2017-09-13T15:31:22.042Z,18.90
2017-09-13T15:33:49.613Z,19.00
2017-09-13T15:36:17.217Z,19.40
2017-09-13T15:38:45.101Z,20.00
2017-09-13T15:41:12.664Z,19.80
2017-09-13T15:43:40.257Z,19.60
2017-09-13T15:46:07.989Z,19.40
2017-09-13T15:48:35.580Z,19.60
2017-09-13T15:51:03.155Z,19.50
2017-09-13T15:53:30.748Z,19.10
2017-09-13T15:55:58.323Z,18.70
2017-09-13T15:58:25.988Z,18.30
2017-09-13T16:00:53.564Z,18.20
2017-09-13T16:03:21.892Z,17.80
2017-09-13T16:05:50.622Z,17.90
2017-09-13T16:08:19.098Z,17.50
2017-09-13T16:10:48.665Z,17.10
2017-09-13T16:13:16.233Z,17.10
2017-09-13T16:15:43.825Z,16.80
2017-09-13T16:18:11.585Z,16.60
2017-09-13T16:20:40.660Z,16.30
2017-09-13T16:23:08.248Z,16.30
2017-09-13T16:25:35.914Z,16.20
2017-09-13T16:28:03.508Z,16.10
2017-09-13T16:30:31.078Z,16.00
2017-09-13T16:32:58.684Z,15.90
2017-09-13T16:35:26.536Z,15.90
2017-09-13T16:37:54.225Z,15.90
2017-09-13T16:40:22.614Z,15.90
2017-09-13T16:42:50.976Z,15.80
2017-09-13T16:45:18.650Z,15.80
2017-09-13T16:47:48.656Z,15.70
2017-09-13T16:50:16.256Z,15.70
2017-09-13T16:52:43.816Z,15.70
2017-09-13T16:55:11.418Z,15.60
2017-09-13T16:57:38.988Z,15.60
2017-09-13T17:00:06.553Z,15.50
2017-09-13T17:02:34.168Z,15.50
2017-09-13T17:05:01.750Z,15.50
2017-09-13T17:07:29.323Z,15.40
2017-09-13T17:09:56.925Z,15.40
2017-09-13T17:12:25.261Z,15.30
2017-09-13T17:14:52.841Z,15.30
2017-09-13T17:17:21.209Z,15.20
2017-09-13T17:19:50.597Z,15.20
2017-09-13T17:22:18.290Z,15.20
2017-09-13T17:24:45.866Z,15.20
2017-09-13T17:27:14.214Z,14.90
2017-09-13T17:29:41.897Z,14.90
2017-09-13T17:32:09.472Z,14.80
2017-09-13T17:34:37.847Z,14.50
2017-09-13T17:37:06.180Z,14.40
2017-09-13T17:39:33.880Z,14.40
2017-09-13T17:42:01.506Z,14.40
2017-09-13T17:44:29.089Z,14.20
2017-09-13T17:46:56.657Z,14.10
2017-09-13T17:49:24.253Z,14.10
2017-09-13T17:51:51.829Z,14.00
2017-09-13T17:54:19.430Z,13.90
2017-09-13T17:56:48.813Z,13.90
2017-09-13T17:59:16.377Z,13.80
2017-09-13T18:01:43.970Z,13.80
2017-09-13T18:04:11.841Z,13.80
2017-09-13T18:06:39.414Z,13.80
2017-09-13T18:09:07.765Z,13.70
2017-09-13T18:11:35.521Z,13.70
2017-09-13T18:14:03.112Z,13.70
2017-09-13T18:16:31.445Z,13.40
2017-09-13T18:18:59.816Z,13.40
2017-09-13T18:21:27.390Z,13.30
2017-09-13T18:23:54.960Z,13.20
2017-09-13T18:26:22.566Z,13.10
2017-09-13T18:28:50.902Z,12.90
2017-09-13T18:31:18.481Z,12.90
2017-09-13T18:33:47.426Z,12.90
2017-09-13T18:36:15.041Z,12.90
2017-09-13T18:38:42.609Z,13.00
2017-09-13T18:41:10.964Z,13.00
2017-09-13T18:43:39.537Z,13.00
2017-09-13T18:46:07.220Z,13.00
2017-09-13T18:48:34.794Z,13.00
2017-09-13T18:51:03.165Z,13.00
2017-09-13T18:53:31.510Z,13.00
2017-09-13T18:55:59.228Z,12.90
2017-09-13T18:58:27.565Z,12.80
2017-09-13T19:00:55.353Z,12.80
2017-09-13T19:03:23.702Z,12.60
2017-09-13T19:05:51.273Z,12.60
2017-09-13T19:08:19.170Z,12.60
2017-09-13T19:10:47.960Z,12.60
2017-09-13T19:13:16.303Z,12.60
2017-09-13T19:15:43.973Z,12.60
2017-09-13T19:18:11.658Z,12.60
2017-09-13T19:20:40.025Z,12.60
2017-09-13T19:23:07.592Z,12.60
2017-09-13T19:25:35.205Z,12.60
2017-09-13T19:28:02.777Z,12.70
2017-09-13T19:30:30.377Z,12.70
2017-09-13T19:32:58.041Z,12.70
2017-09-13T19:35:26.412Z,12.80
2017-09-13T19:37:53.981Z,12.80
2017-09-13T19:40:21.690Z,12.80
2017-09-13T19:42:50.029Z,12.80
2017-09-13T19:45:18.361Z,12.90
2017-09-13T19:47:46.148Z,12.90
2017-09-13T19:50:13.829Z,12.90
2017-09-13T19:52:41.628Z,12.80
2017-09-13T19:55:09.260Z,12.80
2017-09-13T19:57:36.831Z,12.80
2017-09-13T20:00:05.183Z,12.80
2017-09-13T20:02:32.807Z,12.80
2017-09-13T20:05:00.391Z,12.90
2017-09-13T20:07:27.961Z,13.00
2017-09-13T20:09:55.561Z,13.00
2017-09-13T20:12:23.137Z,13.00
2017-09-13T20:14:50.761Z,13.10
2017-09-13T20:17:18.345Z,13.00
2017-09-13T20:19:47.628Z,13.00
2017-09-13T20:22:15.965Z,12.90
2017-09-13T20:24:43.585Z,12.90
2017-09-13T20:27:11.941Z,12.80
2017-09-13T20:29:39.513Z,12.80
2017-09-13T20:32:07.875Z,12.60
2017-09-13T20:34:36.953Z,12.40
2017-09-13T20:37:04.641Z,12.40
2017-09-13T20:39:32.209Z,12.30
2017-09-13T20:42:01.302Z,12.20
2017-09-13T20:44:29.658Z,12.10
2017-09-13T20:46:57.234Z,12.10
2017-09-13T20:49:26.429Z,12.00
2017-09-13T20:51:54.092Z,12.00
2017-09-13T20:54:21.670Z,12.10
2017-09-13T20:56:49.894Z,12.00
2017-09-13T20:59:17.460Z,12.00
2017-09-13T21:01:45.033Z,12.00
2017-09-13T21:04:12.712Z,12.00
2017-09-13T21:06:40.281Z,12.10
2017-09-13T21:09:07.857Z,12.10
2017-09-13T21:11:36.321Z,12.20
2017-09-13T21:14:03.984Z,12.20
2017-09-13T21:16:31.957Z,12.30
2017-09-13T21:19:00.333Z,12.30
2017-09-13T21:21:27.918Z,12.30
2017-09-13T21:23:56.268Z,12.20
2017-09-13T21:26:23.841Z,12.20
2017-09-13T21:28:52.205Z,12.20
2017-09-13T21:31:20.542Z,12.20
2017-09-13T21:33:49.007Z,12.10
2017-09-13T21:36:16.578Z,12.10
2017-09-13T21:38:44.169Z,12.20
2017-09-13T21:41:11.757Z,12.20
2017-09-13T21:43:39.383Z,12.10
2017-09-13T21:46:06.977Z,12.10
2017-09-13T21:48:34.641Z,12.10
2017-09-13T21:51:02.303Z,12.10
2017-09-13T21:53:29.966Z,12.20
2017-09-13T21:55:57.541Z,12.10
2017-09-13T21:58:26.111Z,12.20
2017-09-13T22:00:53.776Z,12.20
2017-09-13T22:03:22.117Z,12.20
2017-09-13T22:05:50.094Z,12.20
2017-09-13T22:08:17.694Z,12.30
2017-09-13T22:10:46.949Z,12.40
2017-09-13T22:13:14.654Z,12.40
2017-09-13T22:15:42.986Z,12.40
2017-09-13T22:18:10.560Z,12.40
2017-09-13T22:20:38.153Z,12.50
2017-09-13T22:23:06.525Z,12.60
2017-09-13T22:25:34.184Z,12.50
2017-09-13T22:28:01.757Z,12.60
2017-09-13T22:30:30.125Z,12.70
2017-09-13T22:32:57.697Z,12.70
2017-09-13T22:35:26.056Z,12.70
2017-09-13T22:37:54.392Z,12.70
2017-09-13T22:40:21.997Z,12.60
2017-09-13T22:42:50.656Z,12.60
2017-09-13T22:45:18.229Z,12.60
2017-09-13T22:47:45.915Z,12.50
2017-09-13T22:50:13.488Z,12.60
2017-09-13T22:52:41.829Z,12.50
2017-09-13T22:55:09.437Z,12.50
2017-09-13T22:57:37.768Z,12.50
2017-09-13T23:00:05.345Z,12.50
2017-09-13T23:02:34.469Z,12.50
2017-09-13T23:05:02.805Z,12.50
2017-09-13T23:07:30.377Z,12.50
2017-09-13T23:09:57.985Z,12.50
2017-09-13T23:12:25.560Z,12.40
2017-09-13T23:14:53.154Z,12.40
2017-09-13T23:17:20.729Z,12.30
2017-09-13T23:19:49.970Z,12.30
2017-09-13T23:22:17.880Z,12.30
2017-09-13T23:24:45.670Z,12.30
2017-09-13T23:27:13.233Z,12.20
2017-09-13T23:29:41.568Z,12.20
2017-09-13T23:32:09.890Z,12.10
2017-09-13T23:34:38.229Z,12.10
2017-09-13T23:37:05.825Z,12.10
2017-09-13T23:39:34.198Z,12.10
2017-09-13T23:42:01.789Z,12.00
2017-09-13T23:44:30.240Z,12.00
2017-09-13T23:46:57.809Z,12.00
2017-09-13T23:49:25.385Z,12.00
2017-09-13T23:51:53.958Z,12.00
2017-09-13T23:54:21.617Z,12.00
2017-09-13T23:56:50.709Z,11.90
2017-09-13T23:59:18.306Z,11.90
